Air Resources Laboratory banner image
Air Resources Laboratory web site National Oceanic and Atmospheric Administration (NOAA)

mn metar


KADC 170656Z AUTO 00000KT 10SM CLR 18/17 A3011 RMK AO2 TSNO=
KAEL 170655Z AUTO 00000KT 4SM BR CLR 14/14 A3017 RMK AO2=
KAIT 170655Z AUTO 00000KT 10SM BKN065 18/17 A3012 RMK AO2=
KANE 170735Z AUTO 00000KT 10SM CLR 20/16 A3014 RMK AO2=
KAQP 170653Z AUTO 25003KT 10SM 19/16 A3012 RMK AO2=
KAUM 170656Z AUTO 00000KT 10SM CLR 14/13 A3017 RMK AO2=
KAXN 170553Z AUTO 19008KT 10SM OVC055 21/17 A3014 RMK AO2 SLP199 T02110167
 10239 20200 402610172 58003 $=
KBBB 170656Z AUTO 00000KT 10SM CLR 17/16 A3014 RMK AO2=
KBDE 170653Z AUTO 26003KT 3/4SM BR VV002 20/19 A3006 RMK AO2 SLP178 T02000189=
KBJI 170735Z AUTO 00000KT 10SM SCT045 SCT050 18/17 A3009 RMK AO2 T01810173=
KBRD 170653Z AUTO 00000KT 10SM BKN070 19/17 A3012 RMK AO2 SLP194 T01890167=
KCBG 170655Z AUTO 00000KT 10SM CLR 20/13 A3014 RMK AO2=
KCKC 170657Z AUTO 00000KT 10SM BKN100 14/12 A3016 RMK AO2=
KCKN 170655Z AUTO 15005KT 10SM CLR 19/17 A3005 RMK AO2=
KCQM 170715Z AUTO 00000KT 10SM 18/16 A3010 RMK AO2=
KDLH 170655Z 12003KT 6SM BR FEW002 16/14 A3014 RMK AO2 SLP207 T01560144 $=
KDTL 170655Z AUTO 19004KT 10SM SCT055 20/17 A3010 RMK AO2=
KDXX 170655Z AUTO 20004KT 10SM SCT100 17/16 A3014 RMK AO2=
KDYT 170655Z AUTO 00000KT 10SM FEW046 BKN065 16/15 A3013 RMK AO2=
KELO 170715Z AUTO 19004KT 10SM SCT041 SCT070 17/17 A3012 RMK AO2 LTG DSNT NW=
KETH 170653Z AUTO 17005KT 10SM 19/16 A3011 RMK AO2=
KEVM 170655Z AUTO 00000KT 7SM BKN045 OVC050 15/15 A3014 RMK AO2=
KFCM 170653Z 21005KT 10SM FEW070 19/14 A3013 RMK AO2 SLP200 T01890144=
KFOZ 170653Z AUTO 00000KT 10SM CLR 17/16 A3014 RMK AO2=
KFRM 170656Z AUTO 00000KT 10SM CLR 16/15 A3017 RMK AO2 SLP216 T01560150=
KFSE 170655Z AUTO 19010KT 10SM VCTS SCT041 SCT085 19/16 A3008 RMK AO2 LTG DSNT
 NE=
KGHW 170655Z AUTO 00000KT 10SM CLR 17/16 A3014 RMK AO2=
KGNA 170656Z AUTO 00000KT 16/13 A3013 RMK AO1 SLP200 T01560133=
KGPZ 170656Z AUTO 17003KT 10SM BKN041 17/17 A3013 RMK AO2 SLP202 T01720167=
KGYL 170655Z AUTO 00000KT 7SM CLR 18/16 A3014 RMK AO2 T01810160=
KHCD 170735Z AUTO 12003KT 10SM CLR 16/16 A3016 RMK AO2 T01630162=
KHCO 170655Z AUTO 00000KT 10SM CLR 16/16 A3004 RMK AO2=
KHIB 170653Z AUTO VRB03KT 4SM BR BKN043 BKN055 16/16 A3012 RMK AO2 SLP199
 T01610161=
KJYG 170715Z AUTO 17003KT 10SM CLR 16/16 A3015 RMK AO2 TSNO=
KLJF 170655Z AUTO 00000KT 10SM SCT050 120 19/18 A3014 RMK AO2=
KLVN 170655Z AUTO 00000KT 10SM CLR 15/15 A3015 RMK AO2=
KLXL 170655Z AUTO 00000KT 10SM SCT075 18/16 A3013 RMK AO2=
KMIC 170653Z AUTO 19003KT 10SM CLR 21/14 A3012 RMK AO2 SLP195 T02060144=
KMJQ 170655Z AUTO 19003KT 1SM VV007 15/15 A3018 RMK AO2 PWINO=
KMKT 170656Z AUTO 17005KT 10SM CLR 18/15 A3015 RMK AO2 SLP209 T01780150=
KMML 170656Z AUTO 22006KT 10SM CLR 17/16 A3015 RMK AO2 SLP206 T01720156=
KMOX 170655Z AUTO 15005KT 10SM CLR 16/16 A3013 RMK AO2=
KMSP 170653Z 19003KT 10SM SCT075 22/14 A3014 RMK AO2 SLP201 T02170144=
KMVE 170655Z AUTO 20004KT 10SM CLR 18/16 A3013 RMK AO2=
KMWM 170655Z AUTO 00000KT 3/4SM BR VV005 15/14 A3016 RMK AO2 VIS 1/4V5=
KMZH 170655Z AUTO 00000KT 10SM OVC085 16/15 A3014 RMK AO2=
KONA 170735Z AUTO 00000KT 10SM CLR 16/16 A3017 RMK AO2=
KORB 170713Z AUTO 19004KT 10SM SCT040 SCT090 17/16 A3008 RMK AO2=
KOTG 170656Z AUTO 00000KT 10SM CLR 16/15 A3018 RMK AO2 SLP217 T01560150=
KOWA 170653Z AUTO 14004KT 10SM 16/14 A3016 RMK AO2=
KPKD 170653Z AUTO 18003KT 10SM CLR 18/16 A3011 RMK AO2 SLP190 T01830161=
KPNM 170655Z AUTO 00000KT 10SM CLR 19/16 A3014 RMK AO2 TSNO=
KPWC 170655Z AUTO 00000KT 10SM 17/16 A3014 RMK AO2=
KRGK 170655Z AUTO 00000KT 7SM CLR 14/13 A3014 RMK AO2=
KROX 170715Z AUTO 00000KT 4SM BR 17/17 A3006 RMK AO2=
KRRT 170655Z AUTO 00000KT 7SM CLR 17/14 A3007 RMK AO2=
KRWF 170653Z AUTO 00000KT 10SM CLR 17/16 A3013 RMK AO2 SLP201 T01720161=
KSAZ 170655Z AUTO 18003KT 10SM OVC046 19/17 A3012 RMK AO2=
KSTC 170653Z AUTO 00000KT 10SM CLR 17/17 A3013 RMK AO2 SLP206 T01720167=
KSTP 170653Z AUTO 15004KT 10SM SCT075 20/17 A3014 RMK AO2 SLP200 T02000172=
KTOB 170655Z AUTO 00000KT 10SM CLR 15/13 A3018 RMK AO2=
KTVF 170656Z AUTO 19005KT 8SM FEW095 17/17 A3007 RMK AO2 SLP181 T01720172=
KTWM 170655Z AUTO 00000KT 10SM BKN041 16/16 A3014 RMK AO2 LTG DSNT W=
KULM 170655Z AUTO 13004KT 10SM CLR 17/15 A3015 RMK AO2=
KVVV 170655Z 18003KT 10SM 18/16 A3011 RMK AO2=
KVWU 170655Z AUTO 20003KT 10SM SCT038 20/18 A3007 RMK AO2=
KXVG 170713Z AUTO 00000KT 2 1/2SM BR SCT080 16/16 A3011 RMK AO2 VIS 3/4V5=